Time;durP1;ratioP1;P1;durP2;ratioP2;P2;SDS_P1;SDS_P2;PMS_P1;PMS_P2;Temp;Humidity;BMP_temperature;BMP_pressure;BME280_temperature;BME280_humidity;BME280_pressure;Samples;Min_cycle;Max_cycle;Signal;HPM_P1;HPM_P2
2022/09/26 00:01:13;;;;;;;21.50;15.15;;;12.60;99.90;;;;;;5112875;28;20086;-69
2022/09/26 00:03:43;;;;;;;24.88;16.23;;;12.60;99.90;;;;;;5112319;28;20070;-69
2022/09/26 00:06:11;;;;;;;22.48;15.93;;;12.60;99.90;;;;;;5113914;28;20048;-70
2022/09/26 00:08:40;;;;;;;19.65;15.68;;;12.60;99.90;;;;;;5114853;28;20028;-69
2022/09/26 00:11:10;;;;;;;25.92;16.55;;;12.60;99.90;;;;;;5115575;28;20044;-70
2022/09/26 00:13:38;;;;;;;22.58;17.05;;;12.60;99.90;;;;;;5115797;28;20030;-69
2022/09/26 00:16:08;;;;;;;19.52;14.13;;;12.60;99.90;;;;;;5081329;28;20094;-70
2022/09/26 00:18:36;;;;;;;19.45;14.93;;;12.60;99.90;;;;;;5095419;28;20044;-71
2022/09/26 00:21:04;;;;;;;21.30;15.25;;;12.60;99.90;;;;;;5094709;28;20039;-70
2022/09/26 00:23:32;;;;;;;20.08;15.65;;;12.60;99.90;;;;;;5094862;28;20040;-70
2022/09/26 00:25:59;;;;;;;19.75;14.30;;;12.60;99.90;;;;;;5092919;28;20043;-69
2022/09/26 00:28:27;;;;;;;17.65;13.27;;;12.70;99.90;;;;;;5067047;28;20032;-70
2022/09/26 00:30:55;;;;;;;17.83;13.52;;;12.70;99.90;;;;;;5074848;28;20051;-69
2022/09/26 00:33:24;;;;;;;22.63;15.32;;;12.70;99.90;;;;;;5086164;28;20505;-69
2022/09/26 00:35:52;;;;;;;21.65;16.30;;;12.70;99.90;;;;;;5094420;28;20070;-70
2022/09/26 00:38:20;;;;;;;21.15;15.00;;;12.70;99.90;;;;;;5094407;28;20483;-69
2022/09/26 00:40:48;;;;;;;19.40;14.80;;;12.70;99.90;;;;;;5076150;28;20525;-70
2022/09/26 00:43:31;;;;;;;20.33;13.80;;;12.70;99.90;;;;;;5096054;28;20036;-70
2022/09/26 00:46:03;;;;;;;18.25;14.60;;;12.70;99.90;;;;;;5093096;28;20113;-70
2022/09/26 00:48:35;;;;;;;21.05;14.70;;;12.80;99.90;;;;;;5094754;28;20040;-70
2022/09/26 00:51:04;;;;;;;21.73;15.40;;;12.80;99.90;;;;;;5094046;28;20047;-69
2022/09/26 00:53:36;;;;;;;20.02;14.80;;;12.80;99.90;;;;;;5075499;28;20093;-68
2022/09/26 00:56:08;;;;;;;21.20;14.35;;;12.80;99.90;;;;;;5074259;28;20046;-71
2022/09/26 00:58:41;;;;;;;18.88;14.32;;;12.80;99.90;;;;;;5073816;28;20044;-70
2022/09/26 01:01:09;;;;;;;19.42;14.43;;;12.80;99.90;;;;;;5080159;28;20135;-70
2022/09/26 01:03:41;;;;;;;21.15;14.50;;;12.80;99.90;;;;;;5098162;28;20055;-70
2022/09/26 01:06:08;;;;;;;20.13;14.75;;;12.80;99.90;;;;;;5097683;28;20043;-70
2022/09/26 01:08:41;;;;;;;25.60;15.63;;;12.80;99.90;;;;;;5099848;28;20040;-70
2022/09/26 01:11:09;;;;;;;22.48;15.98;;;12.80;99.90;;;;;;5085362;28;20066;-70
2022/09/26 01:13:38;;;;;;;19.52;14.90;;;12.90;99.90;;;;;;5103472;28;20068;-70
2022/09/26 01:16:05;;;;;;;18.20;13.13;;;12.80;99.90;;;;;;5108182;28;20040;-71
2022/09/26 01:18:33;;;;;;;20.35;13.65;;;12.80;99.90;;;;;;5087053;28;20043;-70
2022/09/26 01:21:16;;;;;;;19.52;14.63;;;12.90;99.90;;;;;;5096269;28;20055;-70
2022/09/26 01:24:39;;;;;;;21.27;15.40;;;12.90;99.90;;;;;;5078633;28;20051;-70
2022/09/26 01:27:49;;;;;;;20.95;15.45;;;13.00;99.90;;;;;;4997364;28;20524;-70
2022/09/26 01:30:21;;;;;;;19.35;14.88;;;13.00;99.90;;;;;;4991323;28;20046;-69
2022/09/26 01:33:22;;;;;;;20.60;15.27;;;13.00;99.90;;;;;;5094237;28;20040;-70
2022/09/26 01:36:05;;;;;;;20.70;16.05;;;13.00;99.90;;;;;;5076590;28;20568;-70
2022/09/26 01:38:50;;;;;;;23.15;17.52;;;13.00;99.90;;;;;;5094096;28;20043;-70
2022/09/26 01:41:32;;;;;;;21.98;16.75;;;13.00;99.90;;;;;;5076481;28;20051;-70
2022/09/26 01:44:14;;;;;;;19.83;14.93;;;13.00;99.90;;;;;;5075166;28;20047;-70
2022/09/26 01:46:50;;;;;;;21.25;16.55;;;13.00;99.90;;;;;;5074952;28;20048;-69
2022/09/26 01:49:23;;;;;;;24.13;15.80;;;12.90;99.90;;;;;;5093455;28;20116;-70
2022/09/26 01:51:56;;;;;;;21.55;15.02;;;12.90;99.90;;;;;;5075748;28;20561;-70
2022/09/26 01:54:27;;;;;;;20.77;15.98;;;12.90;99.90;;;;;;5075226;28;20040;-70
2022/09/26 01:56:58;;;;;;;23.35;16.80;;;12.90;99.90;;;;;;5075364;28;20075;-69
2022/09/26 01:59:30;;;;;;;21.95;15.98;;;12.90;99.90;;;;;;5074360;28;20047;-71
2022/09/26 02:02:07;;;;;;;19.02;15.15;;;12.90;99.90;;;;;;5056021;28;20044;-70
2022/09/26 02:04:38;;;;;;;18.15;14.88;;;12.90;99.90;;;;;;5075891;28;20033;-70
2022/09/26 02:07:11;;;;;;;22.30;15.15;;;12.90;99.90;;;;;;5077832;28;20120;-70
2022/09/26 02:09:43;;;;;;;18.13;14.02;;;12.90;99.90;;;;;;5059564;28;20048;-69
2022/09/26 02:12:16;;;;;;;22.83;13.38;;;12.90;99.90;;;;;;5059273;28;20139;-68
2022/09/26 02:14:48;;;;;;;17.27;13.43;;;12.90;99.90;;;;;;5064934;28;20067;-70
2022/09/26 02:17:21;;;;;;;24.95;17.50;;;12.90;99.90;;;;;;5079191;28;20097;-70
2022/09/26 02:19:56;;;;;;;26.48;17.35;;;12.90;99.90;;;;;;5099301;28;20047;-69
2022/09/26 02:22:24;;;;;;;25.63;17.55;;;12.90;99.90;;;;;;5100023;28;20044;-69
2022/09/26 02:24:52;;;;;;;22.15;16.70;;;12.90;99.90;;;;;;5079105;28;20040;-69
2022/09/26 02:27:21;;;;;;;20.50;15.65;;;12.90;99.90;;;;;;5079888;28;20044;-70
2022/09/26 02:29:49;;;;;;;20.98;16.23;;;12.90;99.90;;;;;;5078385;28;20094;-70
2022/09/26 02:32:24;;;;;;;22.45;17.05;;;12.90;99.90;;;;;;5095686;28;20048;-69
2022/09/26 02:34:51;;;;;;;24.75;17.48;;;12.90;99.90;;;;;;5078579;28;20499;-70
2022/09/26 02:37:21;;;;;;;26.08;18.75;;;12.90;99.90;;;;;;5097068;28;20078;-71
2022/09/26 02:39:50;;;;;;;23.25;18.10;;;12.90;99.90;;;;;;5095828;28;20052;-70
2022/09/26 02:42:30;;;;;;;23.92;17.52;;;12.90;99.90;;;;;;5078814;28;20068;-70
2022/09/26 02:45:12;;;;;;;20.92;16.83;;;12.90;99.90;;;;;;5078031;28;20398;-69
2022/09/26 02:47:55;;;;;;;19.58;15.13;;;12.90;99.90;;;;;;5078567;28;20519;-71
2022/09/26 02:50:47;;;;;;;23.58;14.85;;;13.00;99.90;;;;;;5096686;28;20102;-69
2022/09/26 02:53:27;;;;;;;20.83;15.40;;;13.10;99.90;;;;;;5078304;28;20473;-71
2022/09/26 02:56:08;;;;;;;18.92;14.60;;;13.10;99.90;;;;;;5078593;28;20044;-70
2022/09/26 02:58:46;;;;;;;19.17;15.23;;;13.10;99.90;;;;;;5077804;28;20487;-70
2022/09/26 03:01:18;;;;;;;20.80;15.07;;;13.10;99.90;;;;;;5095206;28;20059;-69
2022/09/26 03:03:53;;;;;;;22.02;15.68;;;13.00;99.90;;;;;;5077927;28;20043;-71
2022/09/26 03:06:26;;;;;;;18.35;14.43;;;13.00;99.90;;;;;;5078254;28;20044;-70
2022/09/26 03:08:57;;;;;;;22.20;14.55;;;13.00;99.90;;;;;;5077687;28;20540;-70
2022/09/26 03:11:27;;;;;;;22.23;15.25;;;13.00;99.90;;;;;;5094846;28;20076;-71
2022/09/26 03:13:57;;;;;;;17.42;14.48;;;13.10;99.90;;;;;;5076812;28;20491;-70
2022/09/26 03:16:29;;;;;;;18.25;14.00;;;13.10;99.90;;;;;;5074958;28;20056;-70
2022/09/26 03:19:03;;;;;;;16.13;12.18;;;13.10;99.90;;;;;;5060994;28;20404;-70
2022/09/26 03:21:32;;;;;;;14.40;11.65;;;13.10;99.90;;;;;;5058781;28;20040;-72
2022/09/26 03:23:59;;;;;;;19.65;11.57;;;13.10;99.90;;;;;;5073946;28;20089;-70
2022/09/26 03:26:29;;;;;;;17.40;12.00;;;13.10;99.90;;;;;;5061694;28;20040;-69
2022/09/26 03:29:01;;;;;;;16.95;12.95;;;13.20;99.90;;;;;;5057806;28;20074;-71
2022/09/26 03:31:31;;;;;;;15.00;11.95;;;13.20;99.90;;;;;;5059946;28;20154;-70
2022/09/26 03:34:08;;;;;;;16.95;12.50;;;13.20;99.90;;;;;;5070480;28;20499;-71
2022/09/26 03:36:38;;;;;;;18.23;12.55;;;13.20;99.90;;;;;;5077295;28;20036;-70
2022/09/26 03:39:08;;;;;;;15.30;12.60;;;13.30;99.90;;;;;;5077531;28;20044;-70
2022/09/26 03:41:41;;;;;;;16.63;13.25;;;13.30;99.90;;;;;;5077612;28;20080;-70
2022/09/26 03:44:20;;;;;;;19.10;14.60;;;13.30;99.90;;;;;;5077267;28;20075;-70
2022/09/26 03:47:03;;;;;;;20.70;14.80;;;13.30;99.90;;;;;;5095631;28;20062;-70
2022/09/26 03:49:31;;;;;;;18.85;14.68;;;13.30;99.90;;;;;;5077151;28;20458;-70
2022/09/26 03:51:59;;;;;;;37.35;29.48;;;13.30;99.90;;;;;;5077132;28;20071;-71
2022/09/26 03:54:26;;;;;;;21.13;15.23;;;13.40;99.90;;;;;;5077153;28;20511;-69
2022/09/26 03:56:54;;;;;;;18.55;13.55;;;13.30;99.90;;;;;;5076209;28;20074;-70
2022/09/26 03:59:21;;;;;;;19.55;14.38;;;13.30;99.90;;;;;;5093933;28;20050;-70
2022/09/26 04:01:50;;;;;;;20.70;15.75;;;13.30;99.90;;;;;;5090164;22;20040;-69
2022/09/26 04:04:17;;;;;;;31.85;22.90;;;13.30;99.90;;;;;;5095504;28;20051;-69
2022/09/26 04:06:49;;;;;;;22.08;15.95;;;13.30;99.90;;;;;;5077276;28;20068;-69
2022/09/26 04:09:17;;;;;;;19.63;14.75;;;13.30;99.90;;;;;;5077205;28;20063;-68
2022/09/26 04:11:49;;;;;;;17.73;14.15;;;13.30;99.90;;;;;;5077435;28;20078;-70
2022/09/26 04:14:17;;;;;;;19.65;14.45;;;13.20;99.90;;;;;;5077102;28;20055;-69
2022/09/26 04:16:48;;;;;;;20.10;16.48;;;13.30;99.90;;;;;;5076401;28;20059;-70
2022/09/26 04:19:32;;;;;;;19.95;15.63;;;13.30;99.90;;;;;;5079099;28;20048;-70
2022/09/26 04:22:01;;;;;;;20.13;15.27;;;13.30;99.90;;;;;;5088785;28;20043;-69
2022/09/26 04:24:32;;;;;;;17.85;15.13;;;13.20;99.90;;;;;;5074119;28;20139;-69
2022/09/26 04:27:00;;;;;;;33.20;23.55;;;13.20;99.90;;;;;;5064019;28;20102;-69
2022/09/26 04:29:29;;;;;;;25.77;18.60;;;13.20;99.90;;;;;;5085748;28;20048;-69
2022/09/26 04:32:07;;;;;;;45.22;33.03;;;13.10;99.90;;;;;;5077182;28;20048;-69
2022/09/26 04:35:00;;;;;;;30.45;20.98;;;13.10;99.90;;;;;;5064687;28;20051;-70
2022/09/26 04:37:29;;;;;;;23.42;18.35;;;13.10;99.90;;;;;;5076887;28;20071;-69
2022/09/26 04:39:56;;;;;;;22.20;15.68;;;13.10;99.90;;;;;;5067034;28;20072;-69
2022/09/26 04:42:24;;;;;;;21.50;16.38;;;13.10;99.90;;;;;;5073232;28;20041;-70
2022/09/26 04:44:51;;;;;;;23.08;17.10;;;13.10;99.90;;;;;;5057035;28;20059;-69
2022/09/26 04:47:20;;;;;;;21.25;16.90;;;13.10;99.90;;;;;;5056995;28;20051;-70
2022/09/26 04:50:25;;;;;;;21.98;16.27;;;13.10;99.90;;;;;;5074597;28;20385;-70
2022/09/26 04:53:07;;;;;;;17.88;14.65;;;13.10;99.90;;;;;;5071259;28;20109;-70
2022/09/26 04:55:58;;;;;;;21.73;15.13;;;13.10;99.90;;;;;;5066797;28;20051;-70
2022/09/26 04:58:25;;;;;;;24.73;17.80;;;13.20;99.90;;;;;;5083296;28;20719;-70
2022/09/26 05:00:53;;;;;;;26.35;17.27;;;13.20;99.90;;;;;;5067121;28;20084;-70
2022/09/26 05:03:44;;;;;;;27.17;19.00;;;13.20;99.90;;;;;;5048379;28;20042;-70
2022/09/26 05:06:13;;;;;;;23.70;18.40;;;13.30;99.90;;;;;;5060758;28;20042;-70
2022/09/26 05:08:43;;;;;;;27.58;19.67;;;13.40;99.90;;;;;;5049963;28;20046;-70
2022/09/26 05:11:11;;;;;;;25.67;18.15;;;13.40;99.90;;;;;;5054975;28;20076;-70
2022/09/26 05:13:39;;;;;;;25.13;16.90;;;13.50;99.90;;;;;;5062054;28;20071;-70
2022/09/26 05:16:08;;;;;;;25.33;17.35;;;13.70;99.90;;;;;;5067906;28;20013;-69
2022/09/26 05:18:36;;;;;;;28.85;18.20;;;13.80;99.90;;;;;;5075281;28;20060;-69
2022/09/26 05:21:05;;;;;;;29.48;18.95;;;13.90;99.90;;;;;;5072000;28;20041;-69
2022/09/26 05:26:24;;;;;;;21.95;16.27;;;14.10;99.90;;;;;;5068301;28;20025;-71
2022/09/26 05:28:55;;;;;;;25.08;16.58;;;14.10;99.90;;;;;;5070312;28;20135;-71
2022/09/26 05:31:27;;;;;;;23.35;15.55;;;14.20;99.90;;;;;;5066568;28;20192;-72
2022/09/26 05:33:56;;;;;;;24.27;14.48;;;14.30;99.90;;;;;;5063798;28;20103;-71
2022/09/26 05:36:24;;;;;;;23.58;14.73;;;14.50;99.90;;;;;;5060926;28;20044;-69
2022/09/26 05:38:52;;;;;;;23.55;14.27;;;14.70;99.90;;;;;;5059280;28;20029;-70
2022/09/26 05:41:20;;;;;;;21.98;14.40;;;14.80;99.90;;;;;;5061968;28;20156;-70
2022/09/26 05:43:47;;;;;;;24.30;14.35;;;14.80;99.90;;;;;;5048783;28;20419;-70
2022/09/26 05:46:16;;;;;;;16.77;11.25;;;14.90;99.90;;;;;;5055048;28;20051;-70
2022/09/26 05:48:48;;;;;;;16.17;11.48;;;14.90;99.90;;;;;;5048520;28;20352;-70
2022/09/26 05:51:22;;;;;;;23.95;15.00;;;14.80;99.90;;;;;;5046291;28;20053;-69
2022/09/26 05:53:49;;;;;;;18.30;12.73;;;15.00;99.90;;;;;;5046714;28;20071;-68
2022/09/26 05:56:22;;;;;;;23.33;13.13;;;15.10;99.90;;;;;;5067983;28;20104;-70
2022/09/26 05:59:08;;;;;;;24.80;15.55;;;15.10;99.90;;;;;;5058020;28;20132;-70
2022/09/26 06:01:53;;;;;;;24.00;17.98;;;15.30;99.90;;;;;;5086347;28;20055;-69
2022/09/26 06:04:39;;;;;;;27.55;18.20;;;15.30;99.90;;;;;;5069061;28;20470;-69
2022/09/26 06:07:39;;;;;;;27.25;19.38;;;15.50;99.90;;;;;;5054496;28;20136;-69
2022/09/26 06:10:11;;;;;;;25.83;16.83;;;15.50;99.90;;;;;;5067540;28;20051;-69
2022/09/26 06:12:53;;;;;;;59.85;21.90;;;15.60;99.90;;;;;;5076470;28;20055;-69
2022/09/26 06:15:21;;;;;;;28.98;18.13;;;15.60;99.90;;;;;;5077020;28;20051;-68
2022/09/26 06:17:56;;;;;;;26.80;16.27;;;15.60;99.90;;;;;;5078006;28;20074;-68
2022/09/26 06:20:24;;;;;;;23.45;15.38;;;15.70;99.90;;;;;;5080155;28;20054;-68
2022/09/26 06:22:54;;;;;;;23.08;16.10;;;15.80;99.90;;;;;;5076600;28;20059;-69
2022/09/26 06:25:22;;;;;;;36.30;26.05;;;16.00;99.90;;;;;;5103755;28;20047;-69
2022/09/26 06:27:50;;;;;;;26.38;18.67;;;16.10;99.90;;;;;;5073362;28;20044;-70
2022/09/26 06:30:20;;;;;;;29.35;16.70;;;16.40;99.90;;;;;;5073217;28;20044;-70
2022/09/26 06:32:48;;;;;;;28.10;15.52;;;16.50;99.90;;;;;;5064096;28;20045;-68
2022/09/26 06:35:38;;;;;;;29.70;16.05;;;16.70;99.90;;;;;;5060060;28;20127;-68
2022/09/26 06:38:11;;;;;;;27.50;18.75;;;17.10;99.90;;;;;;5076613;28;20033;-70
2022/09/26 06:40:38;;;;;;;36.33;20.58;;;17.40;99.90;;;;;;5080904;28;20036;-69
2022/09/26 06:43:05;;;;;;;28.02;17.33;;;17.40;99.90;;;;;;5078367;28;20045;-69
2022/09/26 06:45:53;;;;;;;24.25;16.77;;;17.50;99.90;;;;;;5113325;28;20055;-68
2022/09/26 06:48:25;;;;;;;27.38;19.15;;;17.50;99.90;;;;;;5077174;28;20170;-70
2022/09/26 06:50:59;;;;;;;27.98;17.80;;;17.60;99.90;;;;;;5087783;28;20510;-69
2022/09/26 06:53:28;;;;;;;24.77;16.35;;;17.60;99.90;;;;;;5069739;28;20047;-69
2022/09/26 06:55:58;;;;;;;20.30;15.85;;;17.80;99.90;;;;;;5071829;28;20482;-69
2022/09/26 06:58:27;;;;;;;29.70;18.52;;;17.80;99.90;;;;;;5075820;28;20479;-68
2022/09/26 07:01:07;;;;;;;25.33;16.58;;;17.80;99.90;;;;;;5075791;28;20044;-70
2022/09/26 07:04:10;;;;;;;25.35;16.05;;;17.90;99.90;;;;;;5083154;28;20055;-68
2022/09/26 07:06:43;;;;;;;23.70;17.20;;;18.00;99.90;;;;;;5098027;28;20036;-70
2022/09/26 07:09:10;;;;;;;30.17;18.02;;;18.10;99.90;;;;;;5079249;28;20106;-69
2022/09/26 07:11:55;;;;;;;27.10;16.05;;;18.20;99.90;;;;;;5076546;28;20040;-69
2022/09/26 07:14:23;;;;;;;38.00;17.77;;;18.30;99.90;;;;;;5078713;28;20052;-69
2022/09/26 07:16:59;;;;;;;24.23;14.10;;;18.30;99.90;;;;;;5102132;28;20044;-69
2022/09/26 07:20:06;;;;;;;24.13;15.40;;;18.60;99.90;;;;;;5062754;28;20055;-68
2022/09/26 07:22:56;;;;;;;26.70;15.27;;;18.80;99.90;;;;;;5060390;28;20109;-68
2022/09/26 07:25:24;;;;;;;25.10;17.00;;;18.90;99.90;;;;;;5078983;28;20104;-69
2022/09/26 07:27:53;;;;;;;24.35;16.83;;;18.90;99.90;;;;;;5083454;28;20467;-68
2022/09/26 07:30:28;;;;;;;24.58;15.95;;;19.10;99.90;;;;;;5085051;28;20055;-67
2022/09/26 07:33:05;;;;;;;24.25;16.25;;;19.50;99.90;;;;;;5082656;28;20506;-68
2022/09/26 07:35:45;;;;;;;25.52;15.35;;;19.80;99.90;;;;;;5079519;28;20044;-70
2022/09/26 07:38:13;;;;;;;24.23;16.70;;;20.30;99.90;;;;;;5079577;28;20111;-71
2022/09/26 07:40:42;;;;;;;23.52;15.77;;;20.80;99.90;;;;;;5077961;28;20043;-73
2022/09/26 07:43:10;;;;;;;27.58;15.80;;;21.30;99.90;;;;;;5078623;28;20055;-72
2022/09/26 07:51:32;;;;;;;22.88;15.02;;;22.30;99.90;;;;;;5067516;28;20059;-74
2022/09/26 07:54:01;;;;;;;23.30;15.38;;;22.20;99.90;;;;;;5078574;28;20101;-71
2022/09/26 07:56:49;;;;;;;27.05;15.88;;;22.00;99.90;;;;;;5096352;28;20052;-72
2022/09/26 07:59:41;;;;;;;25.42;15.77;;;22.00;99.90;;;;;;5078783;28;20051;-72
2022/09/26 08:02:23;;;;;;;22.58;14.70;;;22.20;99.90;;;;;;5078370;28;20118;-72
2022/09/26 08:04:53;;;;;;;22.50;14.70;;;22.50;99.90;;;;;;5078265;28;20483;-72
2022/09/26 08:07:21;;;;;;;27.42;18.17;;;22.80;99.90;;;;;;5078310;28;20066;-72
2022/09/26 08:10:18;;;;;;;26.33;18.35;;;23.00;99.90;;;;;;5055390;28;20077;-72
2022/09/26 08:13:03;;;;;;;29.88;17.88;;;23.20;99.90;;;;;;5085134;28;20169;-72
2022/09/26 08:15:41;;;;;;;21.08;14.82;;;23.10;99.90;;;;;;5057557;28;20048;-72
2022/09/26 08:18:13;;;;;;;24.90;14.38;;;22.90;99.90;;;;;;5058280;28;20152;-72
2022/09/26 08:20:47;;;;;;;18.75;15.00;;;22.90;99.90;;;;;;5057574;28;20040;-73
2022/09/26 08:23:15;;;;;;;23.63;15.18;;;22.90;99.90;;;;;;5060394;28;20052;-72
2022/09/26 08:25:43;;;;;;;28.33;15.50;;;23.00;99.90;;;;;;5066654;28;20044;-73
2022/09/26 08:28:29;;;;;;;20.20;14.15;;;23.30;99.90;;;;;;5091137;28;20082;-73
2022/09/26 08:30:59;;;;;;;14.68;9.25;;;23.50;99.90;;;;;;5065068;28;20464;-71
2022/09/26 08:33:26;;;;;;;17.48;9.40;;;23.60;99.90;;;;;;5057508;28;20411;-72
2022/09/26 08:35:55;;;;;;;9.10;6.68;;;23.60;99.90;;;;;;5057594;28;20052;-73
2022/09/26 08:38:50;;;;;;;15.13;6.85;;;23.60;99.90;;;;;;5057979;28;20121;-73
2022/09/26 08:42:00;;;;;;;8.60;7.15;;;23.60;99.90;;;;;;5071840;28;20044;-72
2022/09/26 08:45:40;;;;;;;11.43;7.53;;;23.50;99.90;;;;;;5057878;28;20052;-71
2022/09/26 08:48:25;;;;;;;9.40;5.55;;;23.70;99.90;;;;;;5075425;28;20104;-71
2022/09/26 08:51:18;;;;;;;7.35;4.57;;;23.80;99.90;;;;;;5083178;28;20420;-71
2022/09/26 08:53:52;;;;;;;7.47;4.60;;;23.60;99.90;;;;;;5074677;28;20080;-72
2022/09/26 08:56:21;;;;;;;9.48;6.03;;;23.70;99.90;;;;;;5085886;28;20070;-72
2022/09/26 08:58:52;;;;;;;6.22;4.22;;;23.70;99.90;;;;;;5069227;28;20036;-72
2022/09/26 09:01:26;;;;;;;6.35;4.70;;;23.70;99.90;;;;;;5075204;28;20136;-72
2022/09/26 09:04:17;;;;;;;7.10;4.30;;;23.90;99.90;;;;;;5072790;28;20049;-73
2022/09/26 09:06:47;;;;;;;7.60;4.13;;;24.10;99.90;;;;;;5076072;28;20048;-73
2022/09/26 09:09:16;;;;;;;7.28;4.38;;;24.30;99.90;;;;;;5074913;28;20044;-72
2022/09/26 09:12:13;;;;;;;7.60;4.80;;;24.50;99.90;;;;;;5086708;28;20044;-70
2022/09/26 09:15:06;;;;;;;10.65;5.57;;;24.20;99.90;;;;;;5078928;28;20131;-72
2022/09/26 09:17:47;;;;;;;7.57;4.55;;;24.10;99.90;;;;;;5067776;28;20049;-71
2022/09/26 09:20:48;;;;;;;7.60;4.90;;;24.40;99.90;;;;;;5063624;28;20090;-74
2022/09/26 09:24:02;;;;;;;10.82;6.40;;;24.30;99.90;;;;;;5069390;28;20055;-71
2022/09/26 09:26:37;;;;;;;10.82;7.30;;;24.20;99.90;;;;;;5078922;28;20168;-72
2022/09/26 09:29:28;;;;;;;8.57;4.55;;;24.10;99.90;;;;;;5078677;28;20041;-72
2022/09/26 09:32:29;;;;;;;13.10;7.70;;;24.20;99.90;;;;;;5050006;28;20049;-77
2022/09/26 09:35:28;;;;;;;11.07;6.35;;;24.20;99.90;;;;;;5077059;28;20059;-73
2022/09/26 09:38:16;;;;;;;14.60;10.43;;;24.10;99.90;;;;;;5097257;28;20047;-72
2022/09/26 09:41:03;;;;;;;17.40;11.68;;;24.10;99.90;;;;;;5097448;28;20052;-72
2022/09/26 09:43:37;;;;;;;16.50;10.90;;;24.30;99.90;;;;;;5098308;28;20078;-73
2022/09/26 09:46:11;;;;;;;8.80;6.82;;;24.30;99.90;;;;;;5060300;28;20085;-72
2022/09/26 09:48:39;;;;;;;37.90;21.98;;;24.30;99.90;;;;;;5056587;28;20052;-72
2022/09/26 09:51:18;;;;;;;9.25;4.10;;;24.50;99.90;;;;;;5075449;28;20037;-72
2022/09/26 09:54:08;;;;;;;6.93;3.95;;;24.60;99.90;;;;;;5068636;28;20063;-74
2022/09/26 09:56:50;;;;;;;7.18;4.25;;;24.90;99.90;;;;;;5074210;28;20066;-71
2022/09/26 09:59:30;;;;;;;15.93;7.43;;;24.90;99.90;;;;;;5070872;28;20048;-73
2022/09/26 10:02:18;;;;;;;8.88;5.68;;;25.00;99.90;;;;;;5079435;28;20050;-72
2022/09/26 10:04:51;;;;;;;11.60;7.80;;;25.40;99.90;;;;;;5057191;28;20056;-72
2022/09/26 10:07:18;;;;;;;6.57;4.32;;;25.60;99.90;;;;;;5074899;28;20045;-73
2022/09/26 10:10:11;;;;;;;7.13;4.43;;;25.40;99.90;;;;;;5084361;28;20055;-71
2022/09/26 10:12:59;;;;;;;6.50;5.05;;;25.40;99.90;;;;;;5083942;28;20052;-71
2022/09/26 10:15:56;;;;;;;5.38;3.70;;;25.40;99.90;;;;;;5074980;28;20068;-72
2022/09/26 10:19:00;;;;;;;77.82;56.60;;;25.20;99.90;;;;;;5068630;28;20067;-71
2022/09/26 10:21:32;;;;;;;8.73;4.05;;;25.20;99.90;;;;;;5074229;28;20055;-73
2022/09/26 10:24:02;;;;;;;10.23;5.00;;;25.30;99.90;;;;;;5073681;28;20044;-71
2022/09/26 10:26:49;;;;;;;8.43;4.90;;;25.40;99.90;;;;;;5077261;28;20606;-71
2022/09/26 10:29:35;;;;;;;39.42;28.83;;;25.40;99.90;;;;;;5076816;28;20075;-71
2022/09/26 10:32:04;;;;;;;7.70;5.80;;;25.40;99.90;;;;;;5078668;28;20097;-73
2022/09/26 10:34:33;;;;;;;204.02;63.35;;;25.60;99.90;;;;;;5075692;28;20411;-72
2022/09/26 10:37:21;;;;;;;249.55;129.00;;;25.40;99.90;;;;;;5076716;28;20051;-72
2022/09/26 10:42:38;;;;;;;8.75;4.60;;;24.80;99.90;;;;;;5077543;28;20040;-72
2022/09/26 10:45:15;;;;;;;15.75;12.75;;;24.60;99.90;;;;;;5076850;28;20040;-71
2022/09/26 10:48:05;;;;;;;30.40;21.67;;;24.40;99.90;;;;;;5077992;28;20128;-72
2022/09/26 10:50:52;;;;;;;19.25;16.40;;;24.40;99.90;;;;;;5082181;28;20846;-72
2022/09/26 10:53:47;;;;;;;7.05;5.28;;;24.30;99.90;;;;;;5104516;28;20111;-71
2022/09/26 10:56:22;;;;;;;8.70;4.93;;;24.30;99.90;;;;;;5081030;28;20043;-71
2022/09/26 10:58:53;;;;;;;11.38;8.95;;;24.10;99.90;;;;;;5082254;28;20041;-72
2022/09/26 11:01:25;;;;;;;26.63;20.38;;;24.00;99.90;;;;;;5074537;28;20053;-71
2022/09/26 11:03:55;;;;;;;14.23;9.45;;;23.90;99.90;;;;;;5064981;28;20049;-72
2022/09/26 11:06:28;;;;;;;25.67;19.05;;;24.10;99.90;;;;;;5056269;28;20055;-72
2022/09/26 11:09:04;;;;;;;11.18;6.55;;;24.20;99.90;;;;;;5074476;28;20080;-72
2022/09/26 11:11:55;;;;;;;33.22;23.98;;;24.30;99.90;;;;;;5046861;28;20432;-71
2022/09/26 11:14:29;;;;;;;13.13;5.03;;;24.40;99.90;;;;;;5061228;28;20053;-73
2022/09/26 11:17:43;;;;;;;;;;;24.60;99.90;;;;;;5063665;28;20048;-70
2022/09/26 11:20:16;;;;;;;11.43;8.45;;;24.70;99.90;;;;;;5068760;28;19928;-71
2022/09/26 11:22:52;;;;;;;13.15;9.82;;;25.00;99.90;;;;;;5058291;28;20349;-71
2022/09/26 11:25:25;;;;;;;11.05;7.47;;;25.20;99.90;;;;;;5056588;28;20103;-71
2022/09/26 11:28:00;;;;;;;12.43;5.97;;;25.20;99.90;;;;;;5056569;28;20071;-73
2022/09/26 11:30:47;;;;;;;9.18;5.65;;;25.20;99.90;;;;;;5039143;28;20041;-71
2022/09/26 11:33:17;;;;;;;10.40;5.85;;;25.20;99.90;;;;;;5058600;28;20112;-72
2022/09/26 11:36:18;;;;;;;9.75;6.72;;;25.00;99.90;;;;;;5051233;28;20511;-71
2022/09/26 11:38:50;;;;;;;9.43;5.97;;;24.60;99.90;;;;;;5059347;28;20055;-71
2022/09/26 11:41:37;;;;;;;10.35;6.13;;;24.40;99.90;;;;;;5061553;28;20045;-71
2022/09/26 11:44:33;;;;;;;10.40;6.18;;;24.30;99.90;;;;;;5057251;28;20037;-71
2022/09/26 11:47:43;;;;;;;19.75;13.10;;;24.30;1.00;;;;;;5050084;28;20077;-71
2022/09/26 11:50:42;;;;;;;8.77;5.43;;;24.30;1.00;;;;;;5057046;28;20045;-70
2022/09/26 11:53:30;;;;;;;;;;;24.30;1.00;;;;;;5053388;28;20075;-71
2022/09/26 11:56:16;;;;;;;7.47;5.75;;;23.80;99.90;;;;;;5070780;28;19966;-70
2022/09/26 11:58:52;;;;;;;8.05;5.65;;;23.60;37.20;;;;;;5056689;28;20108;-71
2022/09/26 12:01:28;;;;;;;8.98;5.88;;;23.40;1.00;;;;;;5074325;28;20113;-70
2022/09/26 12:04:20;;;;;;;9.80;6.70;;;23.00;99.90;;;;;;5098323;28;20097;-70
2022/09/26 12:06:56;;;;;;;9.50;6.45;;;22.90;1.00;;;;;;5085807;28;20396;-70
2022/09/26 12:09:50;;;;;;;10.35;6.30;;;23.30;1.00;;;;;;5104430;28;20044;-71
2022/09/26 12:12:27;;;;;;;11.10;8.90;;;23.40;46.60;;;;;;5105816;28;20509;-69
2022/09/26 12:15:02;;;;;;;11.48;6.05;;;23.50;1.00;;;;;;5108200;28;20048;-72
2022/09/26 12:17:43;;;;;;;9.33;5.90;;;23.30;49.20;;;;;;5109703;28;20048;-70
2022/09/26 12:20:24;;;;;;;8.00;5.60;;;23.20;1.00;;;;;;5109043;28;20048;-70
2022/09/26 12:23:00;;;;;;;9.45;5.95;;;23.20;99.90;;;;;;5110962;28;20044;-70
2022/09/26 12:25:35;;;;;;;;;;;23.30;1.00;;;;;;5107332;28;20035;-71
2022/09/26 12:28:29;;;;;;;9.77;6.15;;;23.30;99.90;;;;;;5097876;28;19920;-71
2022/09/26 12:31:06;;;;;;;7.38;5.97;;;23.70;1.00;;;;;;5061927;28;20060;-71
2022/09/26 12:33:50;;;;;;;8.65;7.18;;;23.80;1.00;;;;;;5076478;28;20041;-70
2022/09/26 12:36:30;;;;;;;9.50;7.22;;;23.80;1.00;;;;;;5101683;28;20135;-70
2022/09/26 12:39:24;;;;;;;8.10;6.22;;;23.70;99.90;;;;;;5067563;28;20060;-71
2022/09/26 12:42:15;;;;;;;8.15;5.57;;;23.70;99.90;;;;;;5090387;28;20057;-71
2022/09/26 12:45:05;;;;;;;7.15;5.35;;;23.50;99.90;;;;;;5092457;28;20039;-71
2022/09/26 12:48:11;;;;;;;7.00;5.65;;;23.50;1.00;;;;;;5090173;28;20040;-71
2022/09/26 12:50:49;;;;;;;7.22;5.53;;;23.50;99.90;;;;;;5081370;28;20048;-71
2022/09/26 12:53:32;;;;;;;15.45;6.65;;;23.30;1.00;;;;;;5094948;28;20068;-71
2022/09/26 12:56:07;;;;;;;7.05;5.05;;;23.30;1.00;;;;;;5077264;28;20068;-71
2022/09/26 12:58:48;;;;;;;7.68;6.05;;;23.40;1.00;;;;;;5095127;28;20133;-72
2022/09/26 13:01:34;;;;;;;8.77;6.20;;;23.50;1.00;;;;;;5109521;28;20052;-70
2022/09/26 13:04:25;;;;;;;13.02;6.53;;;23.60;1.00;;;;;;5079445;28;20139;-71
2022/09/26 13:07:18;;;;;;;7.32;5.95;;;23.20;1.00;;;;;;5073762;28;20487;-70
2022/09/26 13:10:21;;;;;;;10.50;6.05;;;22.50;1.00;;;;;;5093263;28;20032;-71
2022/09/26 13:13:28;;;;;;;9.38;6.50;;;22.40;99.90;;;;;;5062422;28;20052;-70
2022/09/26 13:16:11;;;;;;;9.45;6.78;;;22.30;99.90;;;;;;5085065;28;20040;-72
2022/09/26 13:18:45;;;;;;;8.88;6.63;;;22.30;99.90;;;;;;5093969;28;20051;-70
2022/09/26 13:21:16;;;;;;;10.30;7.30;;;22.00;99.90;;;;;;5068533;28;20055;-70
2022/09/26 13:23:52;;;;;;;8.38;6.75;;;22.10;99.90;;;;;;5076535;28;20082;-73
2022/09/26 13:26:25;;;;;;;11.10;8.32;;;22.20;99.90;;;;;;5081941;28;20509;-77
2022/09/26 13:29:02;;;;;;;10.65;7.07;;;22.40;99.90;;;;;;5090859;28;20424;-68
2022/09/26 13:31:34;;;;;;;10.82;7.43;;;22.80;99.90;;;;;;5076879;28;20040;-69
2022/09/26 13:34:12;;;;;;;10.32;7.13;;;23.20;99.90;;;;;;5106479;28;20043;-69
2022/09/26 13:36:41;;;;;;;28.40;21.25;;;23.30;99.90;;;;;;5102364;28;20031;-72